Time;durP1;ratioP1;P1;durP2;ratioP2;P2;SDS_P1;SDS_P2;PMS_P1;PMS_P2;Temp;Humidity;BMP_temperature;BMP_pressure;BME280_temperature;BME280_humidity;BME280_pressure;Samples;Min_cycle;Max_cycle;Signal;HPM_P1;HPM_P2
2022/01/19 00:01:31;;;;;;;3.20;2.47;;;;;;;;;;5053504;28;20265;-81
2022/01/19 00:03:59;;;;;;;2.40;2.20;;;;;;;;;;5052016;28;20208;-81
2022/01/19 00:06:26;;;;;;;4.13;2.60;;;;;;;;;;5052748;28;20205;-81
2022/01/19 00:08:53;;;;;;;5.47;2.70;;;;;;;;;;5052470;28;20226;-81
2022/01/19 00:11:21;;;;;;;5.23;2.70;;;;;;;;;;5052189;28;20743;-80
2022/01/19 00:13:49;;;;;;;3.43;2.47;;;;;;;;;;5052378;28;20206;-81
2022/01/19 00:16:17;;;;;;;7.43;3.20;;;;;;;;;;5052150;28;20556;-81
2022/01/19 00:18:46;;;;;;;4.47;3.33;;;;;;;;;;5052031;28;20675;-81
2022/01/19 00:21:13;;;;;;;4.93;2.80;;;;;;;;;;5052613;28;20246;-81
2022/01/19 00:23:40;;;;;;;3.67;2.97;;;;;;;;;;5052235;28;20237;-81
2022/01/19 00:26:08;;;;;;;3.30;2.50;;;;;;;;;;5051989;28;20210;-80
2022/01/19 00:28:35;;;;;;;3.47;2.53;;;;;;;;;;5051799;28;20229;-81
2022/01/19 00:31:02;;;;;;;3.73;2.90;;;;;;;;;;5051495;28;20284;-81
2022/01/19 00:33:30;;;;;;;4.40;2.37;;;;;;;;;;5051977;28;20198;-80
2022/01/19 00:35:58;;;;;;;5.80;3.00;;;;;;;;;;5051839;28;20194;-80
2022/01/19 00:38:26;;;;;;;6.47;3.53;;;;;;;;;;5051751;28;20288;-80
2022/01/19 00:40:55;;;;;;;3.20;2.80;;;;;;;;;;5051773;28;20705;-80
2022/01/19 00:43:22;;;;;;;3.83;2.50;;;;;;;;;;5051896;28;20304;-80
2022/01/19 00:45:49;;;;;;;4.33;2.57;;;;;;;;;;5051555;28;20251;-80
2022/01/19 00:48:17;;;;;;;13.70;3.37;;;;;;;;;;5051639;28;20222;-80
2022/01/19 00:50:44;;;;;;;3.57;3.10;;;;;;;;;;5051677;28;20194;-80
2022/01/19 00:53:13;;;;;;;4.87;2.70;;;;;;;;;;5051977;28;20198;-80
2022/01/19 00:55:40;;;;;;;4.07;2.50;;;;;;;;;;5051598;28;20198;-80
2022/01/19 00:58:07;;;;;;;4.23;3.03;;;;;;;;;;5051692;28;20194;-80
2022/01/19 01:00:35;;;;;;;3.80;2.53;;;;;;;;;;5051667;28;20236;-80
2022/01/19 01:03:02;;;;;;;4.10;2.83;;;;;;;;;;5051977;28;20212;-80
2022/01/19 01:05:30;;;;;;;4.20;2.80;;;;;;;;;;5051912;28;20206;-80
2022/01/19 01:07:57;;;;;;;3.07;2.77;;;;;;;;;;5051554;28;20316;-80
2022/01/19 01:10:26;;;;;;;2.67;2.47;;;;;;;;;;5051482;28;20291;-80
2022/01/19 01:12:56;;;;;;;4.30;2.83;;;;;;;;;;5051595;28;20193;-80
2022/01/19 01:15:37;;;;;;;5.20;2.27;;;;;;;;;;5051386;28;20323;-80
2022/01/19 01:18:18;;;;;;;2.57;2.10;;;;;;;;;;5051474;28;20679;-80
2022/01/19 01:20:47;;;;;;;4.43;2.77;;;;;;;;;;5051450;28;20186;-80
2022/01/19 01:23:15;;;;;;;5.17;2.60;;;;;;;;;;5051389;28;20198;-80
2022/01/19 01:25:44;;;;;;;5.57;2.90;;;;;;;;;;5051626;28;20198;-80
2022/01/19 01:28:12;;;;;;;4.90;2.67;;;;;;;;;;5051316;28;20779;-80
2022/01/19 01:30:39;;;;;;;3.03;2.70;;;;;;;;;;5051454;28;20200;-80
2022/01/19 01:33:06;;;;;;;4.97;3.03;;;;;;;;;;5051796;28;20198;-80
2022/01/19 01:35:33;;;;;;;3.83;2.80;;;;;;;;;;5051596;28;20202;-80
2022/01/19 01:38:01;;;;;;;4.90;3.13;;;;;;;;;;5051307;28;20201;-80
2022/01/19 01:40:31;;;;;;;3.17;2.70;;;;;;;;;;5052023;28;20201;-80
2022/01/19 01:43:01;;;;;;;4.43;2.77;;;;;;;;;;5055543;28;20251;-80
2022/01/19 01:45:32;;;;;;;3.87;2.77;;;;;;;;;;5055276;28;20220;-80
2022/01/19 01:48:07;;;;;;;5.80;3.40;;;;;;;;;;5054817;28;20225;-80
2022/01/19 01:53:27;;;;;;;4.60;3.03;;;;;;;;;;5054948;28;20244;-80
2022/01/19 01:55:57;;;;;;;4.37;3.17;;;;;;;;;;5054849;28;20194;-80
2022/01/19 01:58:26;;;;;;;6.30;2.80;;;;;;;;;;5055049;28;20256;-80
2022/01/19 02:00:54;;;;;;;4.90;2.60;;;;;;;;;;5054932;28;20224;-80
2022/01/19 02:03:21;;;;;;;7.47;2.83;;;;;;;;;;5054990;28;20202;-80
2022/01/19 02:06:19;;;;;;;7.40;3.03;;;;;;;;;;5054623;28;20225;-80
2022/01/19 02:08:52;;;;;;;4.00;3.60;;;;;;;;;;5054366;28;20226;-80
2022/01/19 02:23:13;;;;;;;4.87;2.77;;;;;;;;;;5054640;28;20223;-81
2022/01/19 02:25:43;;;;;;;6.37;2.57;;;;;;;;;;5054108;28;20196;-80
2022/01/19 02:36:51;;;;;;;5.37;2.90;;;;;;;;;;5054185;28;20185;-80
2022/01/19 02:42:06;;;;;;;5.07;3.20;;;;;;;;;;5054294;28;20189;-80
2022/01/19 02:46:34;;;;;;;7.70;4.03;;;;;;;;;;5053761;28;20182;-80
2022/01/19 02:50:10;;;;;;;6.03;2.80;;;;;;;;;;5053936;28;20287;-80
2022/01/19 02:52:38;;;;;;;4.83;3.17;;;;;;;;;;5052764;28;20670;-80
2022/01/19 02:55:07;;;;;;;6.00;2.90;;;;;;;;;;5053699;28;20194;-80
2022/01/19 02:57:36;;;;;;;5.67;2.87;;;;;;;;;;5053659;28;20194;-80
2022/01/19 03:10:56;;;;;;;4.57;2.67;;;;;;;;;;5044056;28;20326;-80
2022/01/19 03:13:23;;;;;;;5.10;2.70;;;;;;;;;;5053578;28;20578;-80
2022/01/19 03:15:51;;;;;;;2.63;2.43;;;;;;;;;;5053529;28;20252;-80
2022/01/19 03:18:18;;;;;;;6.97;2.70;;;;;;;;;;5053675;28;20651;-80
2022/01/19 03:20:45;;;;;;;3.00;2.47;;;;;;;;;;5053170;28;20194;-80
2022/01/19 03:23:18;;;;;;;2.57;2.37;;;;;;;;;;5053184;28;20201;-80
2022/01/19 03:25:47;;;;;;;3.60;2.50;;;;;;;;;;5053403;28;20286;-80
2022/01/19 03:28:14;;;;;;;3.43;2.47;;;;;;;;;;5052919;28;20202;-80
2022/01/19 03:30:42;;;;;;;2.10;2.00;;;;;;;;;;5053101;28;20200;-80
2022/01/19 03:33:09;;;;;;;3.60;2.77;;;;;;;;;;5053180;28;20573;-80
2022/01/19 03:35:38;;;;;;;5.27;2.67;;;;;;;;;;5052936;28;20197;-80
2022/01/19 03:38:06;;;;;;;3.87;2.57;;;;;;;;;;5052718;28;20243;-80
2022/01/19 03:40:33;;;;;;;3.53;2.80;;;;;;;;;;5052576;28;20194;-80
2022/01/19 03:43:02;;;;;;;3.30;2.20;;;;;;;;;;5052760;28;20198;-80
2022/01/19 03:45:32;;;;;;;2.37;2.10;;;;;;;;;;5052882;28;20190;-80
2022/01/19 03:48:15;;;;;;;4.17;2.60;;;;;;;;;;5052984;28;20201;-80
2022/01/19 03:50:42;;;;;;;6.63;2.70;;;;;;;;;;5052462;28;20218;-80
2022/01/19 03:53:09;;;;;;;3.87;2.33;;;;;;;;;;5052564;28;20204;-80
2022/01/19 03:55:37;;;;;;;4.53;2.67;;;;;;;;;;5052609;28;20659;-80
2022/01/19 03:58:05;;;;;;;5.60;2.57;;;;;;;;;;5052824;28;20280;-80
2022/01/19 04:00:35;;;;;;;4.47;2.23;;;;;;;;;;5052777;28;20194;-80
2022/01/19 04:03:05;;;;;;;2.73;2.40;;;;;;;;;;5052256;28;20198;-79
2022/01/19 04:05:42;;;;;;;6.20;2.53;;;;;;;;;;5052663;28;20209;-80
2022/01/19 04:08:10;;;;;;;5.57;3.33;;;;;;;;;;5052325;28;20640;-80
2022/01/19 04:10:39;;;;;;;4.67;2.50;;;;;;;;;;5052147;28;20238;-81
2022/01/19 04:13:23;;;;;;;3.07;2.40;;;;;;;;;;5057314;28;20368;-81
2022/01/19 04:15:51;;;;;;;3.97;2.33;;;;;;;;;;5070763;28;20189;-82
2022/01/19 04:18:18;;;;;;;5.23;2.20;;;;;;;;;;5071139;28;20200;-81
2022/01/19 04:20:49;;;;;;;3.93;2.23;;;;;;;;;;5071434;28;20192;-80
2022/01/19 04:23:16;;;;;;;4.20;2.30;;;;;;;;;;5071127;28;20678;-81
2022/01/19 04:25:44;;;;;;;3.40;2.43;;;;;;;;;;5070924;28;20200;-81
2022/01/19 04:28:14;;;;;;;2.67;2.20;;;;;;;;;;5070468;28;20193;-81
2022/01/19 04:30:44;;;;;;;3.83;2.40;;;;;;;;;;5070872;28;20987;-81
2022/01/19 04:33:14;;;;;;;3.67;3.10;;;;;;;;;;5071090;28;20201;-80
2022/01/19 04:35:49;;;;;;;5.57;2.73;;;;;;;;;;5070790;28;20620;-81
2022/01/19 04:44:23;;;;;;;4.87;3.03;;;;;;;;;;5070907;28;20406;-80
2022/01/19 05:03:24;;;;;;;4.03;2.73;;;;;;;;;;5070683;28;20570;-81
2022/01/19 05:05:57;;;;;;;3.53;2.60;;;;;;;;;;5070266;28;20185;-80
2022/01/19 05:08:44;;;;;;;6.20;3.33;;;;;;;;;;5070928;28;20189;-81
2022/01/19 05:13:56;;;;;;;26.70;13.77;;;;;;;;;;5070685;28;20180;-80
2022/01/19 05:16:25;;;;;;;15.20;9.07;;;;;;;;;;5072845;28;20214;-81
2022/01/19 05:18:52;;;;;;;11.73;6.37;;;;;;;;;;5075287;28;20207;-81
2022/01/19 05:21:20;;;;;;;13.93;9.53;;;;;;;;;;5074759;28;20193;-80
2022/01/19 05:23:47;;;;;;;6.73;5.30;;;;;;;;;;5076454;28;20956;-80
2022/01/19 05:26:14;;;;;;;5.33;3.67;;;;;;;;;;5075543;28;20578;-81
2022/01/19 05:28:42;;;;;;;5.10;3.23;;;;;;;;;;5075589;28;20588;-81
2022/01/19 05:31:09;;;;;;;6.03;3.37;;;;;;;;;;5074951;28;20705;-80
2022/01/19 05:33:38;;;;;;;5.33;4.70;;;;;;;;;;5075111;28;20266;-80
2022/01/19 05:36:06;;;;;;;7.73;5.83;;;;;;;;;;5075383;28;20197;-80
2022/01/19 05:38:33;;;;;;;6.83;5.87;;;;;;;;;;5074966;28;20439;-81
2022/01/19 05:41:00;;;;;;;5.77;4.80;;;;;;;;;;5074938;28;20197;-80
2022/01/19 05:43:27;;;;;;;6.40;3.80;;;;;;;;;;5075249;28;20303;-81
2022/01/19 05:45:54;;;;;;;8.83;6.33;;;;;;;;;;5075182;28;20189;-81
2022/01/19 05:48:22;;;;;;;7.13;6.03;;;;;;;;;;5074872;28;20196;-81
2022/01/19 05:50:50;;;;;;;10.90;6.53;;;;;;;;;;5074719;28;20224;-81
2022/01/19 05:53:18;;;;;;;9.07;5.87;;;;;;;;;;5074815;28;20200;-81
2022/01/19 05:55:45;;;;;;;8.07;6.30;;;;;;;;;;5074828;28;20292;-81
2022/01/19 05:58:12;;;;;;;9.27;6.83;;;;;;;;;;5074682;28;20215;-80
2022/01/19 06:00:40;;;;;;;11.00;8.07;;;;;;;;;;5074603;28;20201;-80
2022/01/19 06:03:07;;;;;;;16.43;9.77;;;;;;;;;;5074965;28;20455;-80
2022/01/19 06:05:35;;;;;;;18.13;9.30;;;;;;;;;;5074955;28;20584;-80
2022/01/19 06:08:16;;;;;;;15.73;8.67;;;;;;;;;;5074939;28;20447;-80
2022/01/19 06:10:43;;;;;;;16.93;8.30;;;;;;;;;;5073749;28;20490;-80
2022/01/19 06:13:12;;;;;;;27.23;15.83;;;;;;;;;;5074255;28;20534;-80
2022/01/19 06:15:39;;;;;;;24.60;15.83;;;;;;;;;;5074573;28;20201;-81
2022/01/19 06:18:06;;;;;;;20.63;13.70;;;;;;;;;;5074480;28;20254;-81
2022/01/19 06:20:34;;;;;;;19.70;14.77;;;;;;;;;;5074303;28;20473;-81
2022/01/19 06:23:01;;;;;;;15.60;11.63;;;;;;;;;;5074221;28;20557;-80
2022/01/19 06:25:30;;;;;;;10.03;7.10;;;;;;;;;;5074087;28;20444;-80
2022/01/19 06:27:57;;;;;;;11.33;9.03;;;;;;;;;;5074060;28;20834;-80
2022/01/19 06:30:24;;;;;;;11.40;9.27;;;;;;;;;;5073893;28;20224;-80
2022/01/19 06:32:51;;;;;;;7.03;6.33;;;;;;;;;;5074043;28;20237;-81
2022/01/19 06:35:19;;;;;;;5.33;4.93;;;;;;;;;;5074055;28;20954;-81
2022/01/19 06:37:46;;;;;;;6.97;4.67;;;;;;;;;;5073915;28;20201;-81
2022/01/19 06:40:15;;;;;;;4.23;3.77;;;;;;;;;;5074109;28;20674;-80
2022/01/19 06:42:45;;;;;;;5.33;3.67;;;;;;;;;;5073826;28;20963;-80
2022/01/19 06:45:13;;;;;;;7.43;4.80;;;;;;;;;;5073989;28;20589;-80
2022/01/19 06:47:41;;;;;;;8.03;4.17;;;;;;;;;;5073758;28;20823;-81
2022/01/19 06:50:10;;;;;;;7.97;4.37;;;;;;;;;;5073623;28;20792;-81
2022/01/19 06:52:38;;;;;;;4.00;3.60;;;;;;;;;;5073608;28;20290;-80
2022/01/19 06:55:06;;;;;;;3.97;3.07;;;;;;;;;;5073711;28;20197;-81
2022/01/19 06:57:34;;;;;;;4.87;3.73;;;;;;;;;;5073796;28;20633;-81
2022/01/19 07:00:03;;;;;;;6.90;5.33;;;;;;;;;;5073510;28;20205;-81
2022/01/19 07:02:30;;;;;;;6.73;5.07;;;;;;;;;;5073680;28;20612;-81
2022/01/19 07:04:57;;;;;;;7.90;4.80;;;;;;;;;;5073793;28;20193;-81
2022/01/19 07:07:24;;;;;;;8.73;5.00;;;;;;;;;;5073584;28;20303;-81
2022/01/19 07:09:52;;;;;;;6.13;4.73;;;;;;;;;;5073024;28;20221;-82
2022/01/19 07:12:19;;;;;;;4.43;4.03;;;;;;;;;;5073299;28;20188;-82
2022/01/19 07:14:46;;;;;;;8.27;5.90;;;;;;;;;;5073108;28;20292;-83
2022/01/19 07:17:15;;;;;;;6.57;4.80;;;;;;;;;;5072952;28;20201;-83
2022/01/19 07:19:45;;;;;;;8.47;5.30;;;;;;;;;;5072979;28;20195;-83
2022/01/19 07:22:16;;;;;;;6.07;4.63;;;;;;;;;;5070842;28;20204;-83
2022/01/19 07:24:46;;;;;;;9.10;4.73;;;;;;;;;;5072473;28;20204;-84
2022/01/19 07:27:29;;;;;;;4.93;4.43;;;;;;;;;;5072626;28;20197;-85
2022/01/19 07:30:15;;;;;;;7.70;4.83;;;;;;;;;;5072754;28;20679;-85
2022/01/19 07:32:48;;;;;;;7.10;5.07;;;;;;;;;;5072779;28;20318;-85
2022/01/19 07:35:16;;;;;;;7.83;3.97;;;;;;;;;;5073046;28;20615;-85
2022/01/19 07:37:46;;;;;;;7.37;3.30;;;;;;;;;;5072700;28;20196;-85
2022/01/19 07:40:14;;;;;;;6.73;3.60;;;;;;;;;;5072727;28;20193;-86
2022/01/19 07:42:51;;;;;;;5.60;3.80;;;;;;;;;;5072594;28;20294;-85
2022/01/19 07:45:18;;;;;;;4.43;2.93;;;;;;;;;;5072632;28;20208;-86
2022/01/19 07:47:47;;;;;;;6.03;3.30;;;;;;;;;;5072370;28;20204;-86
2022/01/19 07:50:20;;;;;;;6.10;2.97;;;;;;;;;;5072546;28;20319;-87
2022/01/19 07:52:47;;;;;;;7.07;3.87;;;;;;;;;;5072698;28;20727;-86
2022/01/19 07:55:18;;;;;;;9.20;3.87;;;;;;;;;;5072783;28;20641;-85
2022/01/19 07:57:49;;;;;;;5.17;3.77;;;;;;;;;;5072313;28;20207;-85
2022/01/19 08:00:22;;;;;;;4.93;3.17;;;;;;;;;;5072402;28;20646;-85
2022/01/19 08:02:51;;;;;;;6.33;4.63;;;;;;;;;;5072551;28;20189;-86
2022/01/19 08:05:34;;;;;;;4.87;3.20;;;;;;;;;;5072573;28;20727;-85
2022/01/19 08:08:02;;;;;;;8.53;3.30;;;;;;;;;;5072397;28;20186;-85
2022/01/19 08:10:35;;;;;;;8.57;3.77;;;;;;;;;;5071867;28;20237;-85
2022/01/19 08:13:22;;;;;;;3.50;3.07;;;;;;;;;;5072391;28;20284;-86
2022/01/19 08:15:58;;;;;;;2.60;2.40;;;;;;;;;;5072360;28;20197;-86
2022/01/19 08:18:27;;;;;;;3.90;3.20;;;;;;;;;;5072257;28;20188;-86
2022/01/19 08:21:03;;;;;;;4.77;3.10;;;;;;;;;;5072144;28;20452;-86
2022/01/19 08:23:43;;;;;;;6.07;3.90;;;;;;;;;;5071780;28;20197;-85
2022/01/19 08:26:22;;;;;;;4.97;3.33;;;;;;;;;;5072231;28;20246;-86
2022/01/19 08:28:53;;;;;;;3.80;2.60;;;;;;;;;;5071926;28;20200;-86
2022/01/19 08:31:26;;;;;;;3.47;2.87;;;;;;;;;;5072351;28;20665;-86
2022/01/19 08:33:57;;;;;;;4.67;2.97;;;;;;;;;;5072145;28;20193;-85
2022/01/19 08:36:26;;;;;;;8.90;4.07;;;;;;;;;;5072227;28;20193;-85
2022/01/19 08:38:56;;;;;;;3.90;3.50;;;;;;;;;;5072053;28;20193;-85
2022/01/19 08:41:24;;;;;;;6.03;4.73;;;;;;;;;;5072058;28;20197;-85
2022/01/19 08:43:57;;;;;;;4.13;2.87;;;;;;;;;;5072030;28;20661;-85
2022/01/19 08:46:24;;;;;;;5.70;2.77;;;;;;;;;;5071986;28;20238;-85
2022/01/19 08:48:54;;;;;;;3.30;2.87;;;;;;;;;;5071903;28;20288;-85
2022/01/19 08:51:26;;;;;;;4.77;3.07;;;;;;;;;;5073909;28;20263;-84
2022/01/19 08:53:56;;;;;;;13.53;4.80;;;;;;;;;;5076113;28;20211;-85
2022/01/19 08:56:26;;;;;;;5.77;4.27;;;;;;;;;;5076852;28;20223;-85
2022/01/19 08:59:06;;;;;;;4.53;2.90;;;;;;;;;;5075875;28;20197;-84
2022/01/19 09:01:33;;;;;;;4.20;3.23;;;;;;;;;;5075587;28;20192;-85
2022/01/19 09:04:00;;;;;;;4.17;3.77;;;;;;;;;;5076224;28;20642;-85
2022/01/19 09:06:29;;;;;;;4.20;3.40;;;;;;;;;;5075823;28;20276;-84
2022/01/19 09:08:59;;;;;;;3.43;2.93;;;;;;;;;;5075939;28;20236;-85
2022/01/19 09:11:26;;;;;;;6.00;3.07;;;;;;;;;;5073793;28;20233;-85
2022/01/19 09:13:54;;;;;;;4.43;3.30;;;;;;;;;;5076058;28;20628;-86
2022/01/19 09:16:34;;;;;;;5.13;3.40;;;;;;;;;;5075652;28;20196;-85
2022/01/19 09:19:02;;;;;;;4.40;3.73;;;;;;;;;;5075655;28;20576;-86
2022/01/19 09:21:31;;;;;;;5.57;3.00;;;;;;;;;;5075342;28;20189;-85
2022/01/19 09:23:58;;;;;;;4.53;2.97;;;;;;;;;;5075577;28;20197;-86
2022/01/19 09:26:25;;;;;;;6.77;3.17;;;;;;;;;;5075861;28;20636;-86
2022/01/19 09:28:55;;;;;;;6.37;4.17;;;;;;;;;;5075783;28;20584;-86
2022/01/19 09:31:25;;;;;;;3.97;3.60;;;;;;;;;;5075541;28;20224;-85
2022/01/19 09:33:57;;;;;;;4.73;3.53;;;;;;;;;;5075504;28;20203;-86
2022/01/19 09:36:33;;;;;;;6.77;3.77;;;;;;;;;;5075372;28;20189;-86
2022/01/19 09:39:06;;;;;;;4.17;3.73;;;;;;;;;;5075449;28;20208;-86
2022/01/19 09:41:41;;;;;;;4.70;4.23;;;;;;;;;;5075630;28;20546;-86
2022/01/19 09:44:08;;;;;;;5.27;4.73;;;;;;;;;;5075196;28;20213;-86
2022/01/19 09:46:36;;;;;;;6.90;5.03;;;;;;;;;;5075494;28;20196;-87
2022/01/19 09:49:09;;;;;;;4.13;3.33;;;;;;;;;;5075225;28;20193;-86
2022/01/19 09:51:37;;;;;;;3.80;3.10;;;;;;;;;;5075020;28;20720;-86
2022/01/19 09:54:06;;;;;;;4.03;3.33;;;;;;;;;;5075609;28;20201;-86
2022/01/19 09:56:39;;;;;;;3.50;3.20;;;;;;;;;;5075360;28;20193;-86
2022/01/19 09:59:16;;;;;;;5.00;3.93;;;;;;;;;;5075091;28;20201;-87
2022/01/19 10:01:54;;;;;;;6.23;3.20;;;;;;;;;;5074812;28;20196;-86
2022/01/19 10:04:25;;;;;;;4.90;3.87;;;;;;;;;;5074921;28;20268;-87
2022/01/19 10:07:16;;;;;;;5.03;3.43;;;;;;;;;;5074941;28;20220;-86
2022/01/19 10:09:53;;;;;;;3.77;2.27;;;;;;;;;;5075278;28;20188;-86
2022/01/19 10:18:20;;;;;;;3.10;2.70;;;;;;;;;;5075105;28;20196;-86
2022/01/19 10:20:49;;;;;;;2.97;2.60;;;;;;;;;;5074988;28;20231;-86
2022/01/19 10:23:37;;;;;;;3.40;2.87;;;;;;;;;;5074806;28;20192;-87
2022/01/19 10:26:09;;;;;;;4.00;2.50;;;;;;;;;;5074871;28;20249;-87
2022/01/19 10:28:58;;;;;;;3.30;2.80;;;;;;;;;;5074436;28;20187;-87
2022/01/19 10:31:44;;;;;;;5.13;3.23;;;;;;;;;;5033072;28;20646;-87
2022/01/19 10:34:19;;;;;;;9.33;6.23;;;;;;;;;;5074633;28;20205;-87
2022/01/19 10:36:48;;;;;;;2.87;2.53;;;;;;;;;;5074438;28;20310;-86
2022/01/19 10:39:16;;;;;;;4.83;2.70;;;;;;;;;;5074263;28;20288;-86
2022/01/19 10:42:02;;;;;;;3.47;2.20;;;;;;;;;;5074077;28;20259;-87
2022/01/19 10:44:34;;;;;;;3.53;2.07;;;;;;;;;;5074104;28;20631;-87
2022/01/19 10:47:11;;;;;;;2.70;2.00;;;;;;;;;;5074232;28;20185;-87
2022/01/19 10:49:58;;;;;;;2.87;2.17;;;;;;;;;;5074168;28;20283;-86
2022/01/19 10:52:34;;;;;;;5.37;3.60;;;;;;;;;;5074723;28;20593;-86
2022/01/19 10:55:03;;;;;;;4.47;3.17;;;;;;;;;;5074112;28;20258;-87
2022/01/19 10:57:32;;;;;;;2.47;2.00;;;;;;;;;;5074571;28;20231;-87
2022/01/19 11:00:18;;;;;;;2.90;2.00;;;;;;;;;;5073757;28;20193;-87
2022/01/19 11:02:56;;;;;;;2.13;1.93;;;;;;;;;;5074179;28;20185;-87
2022/01/19 11:05:44;;;;;;;3.63;2.13;;;;;;;;;;5073711;28;20197;-86
2022/01/19 11:08:12;;;;;;;2.87;2.00;;;;;;;;;;5074014;28;20193;-87
2022/01/19 11:10:39;;;;;;;3.43;2.10;;;;;;;;;;5073395;28;20324;-87
2022/01/19 11:13:14;;;;;;;2.67;2.23;;;;;;;;;;5072729;28;20280;-87
2022/01/19 11:15:41;;;;;;;2.13;1.70;;;;;;;;;;5073353;28;20287;-87
2022/01/19 11:18:19;;;;;;;2.93;1.87;;;;;;;;;;5073477;28;20197;-87
2022/01/19 11:20:48;;;;;;;3.60;3.17;;;;;;;;;;5073495;28;20258;-87
2022/01/19 11:23:26;;;;;;;5.47;2.17;;;;;;;;;;5073816;28;20278;-87
2022/01/19 11:25:58;;;;;;;2.33;1.73;;;;;;;;;;5073625;28;20276;-87
2022/01/19 11:28:38;;;;;;;6.20;2.60;;;;;;;;;;5073384;28;20276;-86
2022/01/19 11:31:19;;;;;;;8.80;2.50;;;;;;;;;;5073303;28;20200;-87
2022/01/19 11:33:51;;;;;;;2.53;2.00;;;;;;;;;;5073302;28;20197;-87
2022/01/19 11:36:24;;;;;;;2.97;1.90;;;;;;;;;;5073108;28;20196;-87
2022/01/19 11:39:06;;;;;;;3.50;3.00;;;;;;;;;;5072941;28;20201;-87
2022/01/19 11:41:48;;;;;;;3.17;2.50;;;;;;;;;;5073057;28;20185;-86
2022/01/19 11:44:47;;;;;;;2.63;2.00;;;;;;;;;;5072793;28;20195;-87
2022/01/19 11:47:21;;;;;;;4.07;3.50;;;;;;;;;;5072881;28;20197;-86
2022/01/19 11:49:57;;;;;;;35.33;16.83;;;;;;;;;;5072827;28;20267;-86
2022/01/19 11:53:08;;;;;;;2.93;2.63;;;;;;;;;;5072776;28;20228;-87
2022/01/19 11:55:36;;;;;;;7.20;4.50;;;;;;;;;;5072729;28;20215;-86
2022/01/19 11:58:17;;;;;;;3.90;2.53;;;;;;;;;;5072860;28;20204;-86
2022/01/19 12:00:58;;;;;;;2.73;2.50;;;;;;;;;;5072688;28;20197;-87
2022/01/19 12:03:28;;;;;;;2.63;2.23;;;;;;;;;;5072371;28;20530;-87
2022/01/19 12:05:56;;;;;;;3.57;2.73;;;;;;;;;;5072586;28;20280;-86
2022/01/19 12:08:30;;;;;;;4.07;1.90;;;;;;;;;;5072489;28;20200;-87
2022/01/19 12:11:23;;;;;;;11.70;6.03;;;;;;;;;;5070752;28;20264;-87
2022/01/19 12:14:08;;;;;;;4.87;3.33;;;;;;;;;;5072574;28;20193;-87
2022/01/19 12:16:58;;;;;;;3.60;2.20;;;;;;;;;;5072611;28;20288;-87
2022/01/19 12:19:30;;;;;;;2.53;1.80;;;;;;;;;;5073094;28;20204;-87
2022/01/19 12:22:11;;;;;;;7.70;3.47;;;;;;;;;;5072211;28;20199;-87
2022/01/19 12:24:44;;;;;;;5.83;4.00;;;;;;;;;;5072296;28;20205;-86
2022/01/19 12:27:29;;;;;;;2.50;2.00;;;;;;;;;;5072288;28;20197;-87
2022/01/19 12:30:09;;;;;;;3.50;2.47;;;;;;;;;;5072649;28;20847;-86
2022/01/19 12:32:49;;;;;;;5.77;3.83;;;;;;;;;;5072026;28;20248;-87
2022/01/19 12:35:35;;;;;;;3.07;2.67;;;;;;;;;;5072362;28;20650;-87
2022/01/19 12:38:06;;;;;;;4.10;1.63;;;;;;;;;;5072623;28;20254;-87
2022/01/19 12:40:43;;;;;;;2.00;1.43;;;;;;;;;;5072076;28;20216;-87
2022/01/19 12:43:13;;;;;;;3.00;2.53;;;;;;;;;;5072102;28;20239;-87
2022/01/19 12:45:49;;;;;;;2.27;2.00;;;;;;;;;;5072365;28;20201;-87
2022/01/19 12:48:37;;;;;;;3.33;1.70;;;;;;;;;;5072067;28;20192;-87
2022/01/19 12:51:05;;;;;;;3.07;2.33;;;;;;;;;;5071981;28;20227;-87
2022/01/19 12:53:33;;;;;;;3.97;1.80;;;;;;;;;;5071909;28;20204;-87
2022/01/19 12:56:06;;;;;;;4.50;1.97;;;;;;;;;;5071972;28;20200;-86
2022/01/19 12:58:46;;;;;;;4.87;2.40;;;;;;;;;;5071918;28;20322;-87
2022/01/19 13:01:13;;;;;;;3.33;2.80;;;;;;;;;;5072111;28;20232;-87
2022/01/19 13:03:45;;;;;;;2.80;2.47;;;;;;;;;;5072222;28;20246;-87
2022/01/19 13:06:31;;;;;;;2.30;2.10;;;;;;;;;;5072183;28;20669;-87
2022/01/19 13:09:09;;;;;;;2.83;2.53;;;;;;;;;;5071936;28;20276;-87
2022/01/19 13:11:40;;;;;;;3.80;2.43;;;;;;;;;;5071742;28;20258;-87
2022/01/19 13:14:24;;;;;;;3.00;2.30;;;;;;;;;;5072934;28;20201;-86
2022/01/19 13:16:55;;;;;;;2.40;2.20;;;;;;;;;;5072488;28;20194;-87
2022/01/19 13:19:27;;;;;;;3.30;2.63;;;;;;;;;;5071897;28;20684;-87
2022/01/19 13:22:06;;;;;;;3.90;2.67;;;;;;;;;;5072859;28;20546;-87
2022/01/19 13:24:36;;;;;;;3.20;2.20;;;;;;;;;;5071904;28;20203;-87
2022/01/19 13:27:10;;;;;;;3.77;2.80;;;;;;;;;;5071974;28;20193;-87
2022/01/19 13:29:39;;;;;;;6.53;4.63;;;;;;;;;;5072129;28;20197;-87
2022/01/19 13:32:10;;;;;;;4.47;3.77;;;;;;;;;;5071903;28;20221;-88
2022/01/19 13:34:57;;;;;;;6.87;6.10;;;;;;;;;;5071891;28;20250;-87
2022/01/19 13:37:25;;;;;;;4.57;3.50;;;;;;;;;;5073674;28;20203;-87
2022/01/19 13:40:07;;;;;;;4.90;3.17;;;;;;;;;;5075244;28;20197;-87
2022/01/19 13:42:41;;;;;;;3.80;2.53;;;;;;;;;;5075447;28;20242;-87
2022/01/19 13:45:14;;;;;;;4.83;3.43;;;;;;;;;;5075104;28;20197;-87
2022/01/19 13:48:09;;;;;;;2.80;2.47;;;;;;;;;;5075324;28;20205;-87
2022/01/19 13:50:39;;;;;;;3.47;2.30;;;;;;;;;;5075044;28;20204;-87
2022/01/19 13:53:26;;;;;;;2.43;2.00;;;;;;;;;;5074943;28;20221;-87
2022/01/19 13:55:53;;;;;;;2.33;1.80;;;;;;;;;;5075057;28;20205;-86
2022/01/19 13:58:21;;;;;;;3.10;2.70;;;;;;;;;;5075009;28;20646;-87
2022/01/19 14:00:54;;;;;;;3.63;2.00;;;;;;;;;;5075351;28;20268;-87
2022/01/19 14:03:47;;;;;;;2.57;2.10;;;;;;;;;;5075012;28;20205;-87
2022/01/19 14:06:24;;;;;;;5.20;3.53;;;;;;;;;;5074955;28;20201;-87
2022/01/19 14:09:12;;;;;;;3.83;3.10;;;;;;;;;;5075179;28;20215;-87
2022/01/19 14:11:41;;;;;;;5.30;3.23;;;;;;;;;;5074711;28;20225;-87
2022/01/19 14:14:10;;;;;;;5.73;3.40;;;;;;;;;;5074981;28;20284;-87
2022/01/19 14:16:38;;;;;;;4.70;3.00;;;;;;;;;;5074978;28;20197;-87
2022/01/19 14:19:20;;;;;;;3.10;2.60;;;;;;;;;;5074492;28;20225;-87
2022/01/19 14:22:23;;;;;;;2.33;2.00;;;;;;;;;;5074994;28;20197;-87
2022/01/19 14:25:07;;;;;;;5.50;3.33;;;;;;;;;;5074949;28;20196;-87
2022/01/19 14:27:40;;;;;;;3.50;2.83;;;;;;;;;;5074983;28;20228;-87
2022/01/19 14:30:28;;;;;;;9.70;6.00;;;;;;;;;;5075073;28;20264;-86
2022/01/19 14:32:56;;;;;;;2.90;2.53;;;;;;;;;;5074673;28;20292;-87
2022/01/19 14:35:29;;;;;;;2.90;2.60;;;;;;;;;;5074540;28;20193;-87
2022/01/19 14:38:04;;;;;;;5.90;3.70;;;;;;;;;;5074423;28;20186;-87
2022/01/19 14:40:34;;;;;;;7.13;2.97;;;;;;;;;;5074665;28;20568;-87
2022/01/19 14:43:01;;;;;;;5.63;3.30;;;;;;;;;;5074660;28;20192;-86
2022/01/19 14:45:36;;;;;;;3.00;2.57;;;;;;;;;;5074158;28;20197;-87
2022/01/19 14:48:13;;;;;;;5.17;2.90;;;;;;;;;;5072902;28;20192;-87
2022/01/19 14:50:47;;;;;;;4.37;3.23;;;;;;;;;;5074223;28;20207;-87
2022/01/19 14:53:34;;;;;;;6.50;5.73;;;;;;;;;;5074960;28;20221;-87
2022/01/19 14:56:01;;;;;;;8.23;6.50;;;;;;;;;;5074115;28;20660;-87
2022/01/19 14:58:32;;;;;;;16.47;11.03;;;;;;;;;;5074763;28;20296;-87
2022/01/19 15:01:02;;;;;;;30.07;20.40;;;;;;;;;;5074102;28;20200;-87
2022/01/19 15:03:36;;;;;;;15.97;11.27;;;;;;;;;;5074232;28;20203;-87
2022/01/19 15:06:03;;;;;;;9.53;7.50;;;;;;;;;;5074479;28;20547;-87
2022/01/19 15:08:35;;;;;;;7.17;5.03;;;;;;;;;;5073796;28;20193;-87
2022/01/19 15:11:05;;;;;;;8.90;3.60;;;;;;;;;;5073067;28;20232;-87
2022/01/19 15:13:35;;;;;;;10.17;6.60;;;;;;;;;;5074146;28;20606;-87
2022/01/19 15:16:03;;;;;;;11.37;6.50;;;;;;;;;;5073881;28;20197;-87
2022/01/19 15:18:33;;;;;;;9.80;6.83;;;;;;;;;;5073590;28;20283;-87
2022/01/19 15:21:09;;;;;;;8.27;4.13;;;;;;;;;;5073640;28;20634;-87
2022/01/19 15:23:41;;;;;;;6.80;3.73;;;;;;;;;;5073615;28;20219;-87
2022/01/19 15:26:11;;;;;;;6.50;3.33;;;;;;;;;;5073879;28;20201;-87
2022/01/19 15:28:39;;;;;;;5.27;2.83;;;;;;;;;;5073191;28;20200;-87
2022/01/19 15:31:11;;;;;;;239.13;125.37;;;;;;;;;;5073329;28;20723;-87
2022/01/19 15:33:39;;;;;;;74.00;44.73;;;;;;;;;;5073225;28;20271;-87
2022/01/19 15:36:10;;;;;;;88.40;54.70;;;;;;;;;;5073301;28;20646;-87
2022/01/19 15:38:44;;;;;;;89.93;54.50;;;;;;;;;;5073465;28;20203;-88
2022/01/19 15:41:13;;;;;;;44.10;24.80;;;;;;;;;;5073096;28;20200;-87
2022/01/19 15:43:40;;;;;;;12.80;8.67;;;;;;;;;;5073128;28;20577;-87
2022/01/19 15:46:13;;;;;;;8.17;6.07;;;;;;;;;;5073329;28;20197;-87
2022/01/19 15:48:41;;;;;;;42.17;24.20;;;;;;;;;;5072552;28;20251;-88
2022/01/19 15:51:08;;;;;;;200.03;115.30;;;;;;;;;;5073089;28;20224;-87
2022/01/19 15:53:36;;;;;;;35.63;26.27;;;;;;;;;;5072693;28;20308;-87
2022/01/19 15:56:05;;;;;;;26.87;18.50;;;;;;;;;;5073183;28;20193;-87
2022/01/19 15:58:32;;;;;;;19.57;12.60;;;;;;;;;;5073184;28;20673;-87
2022/01/19 16:00:59;;;;;;;19.17;14.13;;;;;;;;;;5072472;28;20204;-87
2022/01/19 16:03:26;;;;;;;31.17;19.07;;;;;;;;;;5072600;28;20582;-87
2022/01/19 16:05:55;;;;;;;24.50;16.33;;;;;;;;;;5072608;28;20197;-87
2022/01/19 16:08:25;;;;;;;12.87;8.67;;;;;;;;;;5072538;28;20693;-87
2022/01/19 16:10:55;;;;;;;204.97;93.73;;;;;;;;;;5072290;28;20619;-87
2022/01/19 16:13:24;;;;;;;74.30;38.80;;;;;;;;;;5072319;28;20225;-87
2022/01/19 16:15:51;;;;;;;76.60;41.67;;;;;;;;;;5072537;28;20204;-87
2022/01/19 16:18:20;;;;;;;101.33;57.33;;;;;;;;;;5072450;28;20262;-87
2022/01/19 16:20:47;;;;;;;16.77;12.63;;;;;;;;;;5072497;28;20231;-87